Tiempo atmosférico en la estación meteorológica de Almadén, Ciudad Real (535 m.)



Fecha
DESCASC
Temp. máxima en grados centígrados (hora)
DESCASC
Temp. mínima en grados centígrados (hora)
DESCASC
Temp. media en grados centígrados
DESCASC
Racha de viento máxima en m/sg (hora)
DESCASC
Velocidad máxima media en intervalos de 10 minutos(hora)
DESCASC
Precipitaciones diarias en mm
DESCASC
Precipitaciones de 00:00 a 06:00 en mm
DESCASC
Precipitaciones de 06:00 a 12:00 en mm
DESCASC
Precipitaciones de 12:00 a 18:00 en mm
DESCASC
Precipitaciones de 18:00 a 24:00 en mm
DESCASC
05-12-2019 13.1 (14:10) 7.1 (07:30) 10.1 9.44 (12:40) 5.28 (13:50) 0 0 0 0 0
04-12-2019 13.3 (13:40) 6 (07:10) 9.7 7.5 (01:00) 3.06 (03:50) 0.6 0 0 0.2 0.4
03-12-2019 11.7 (12:50) 7.6 (00:00) 9.6 11.94 (00:20) 5.28 (00:20) 0 0 0 0 0
02-12-2019 11.6 (14:10) 7.1 (00:00) 9.4 13.06 (14:40) 6.39 (14:30) 0 0 0 0 0
01-12-2019 10 (13:40) 7.2 (00:00) 8.6 10.28 (14:00) 5.56 (13:20) 8.2 0 0 6.2 2
30-11-2019 14.8 (15:40) 9.4 (00:00) 12.1 12.78 (21:40) 6.67 (21:40) 0.8 0 0 0 0.8
29-11-2019 14.8 (15:20) 10.8 (00:00) 12.8 5.83 (04:00) 4.72 (03:50) 0 0 0 0 0
28-11-2019 13.5 (15:30) 8.6 (00:00) 11.1 5.83 (23:59) 3.89 (23:30) 0 0 0 0 0
27-11-2019 14.8 (15:30) 10.3 (00:00) 12.6 8.61 (01:10) 3.61 (05:50) 1.2 0.2 0 1 0
26-11-2019 14.7 (15:50) 10.9 (00:00) 12.8 14.44 (20:20) 7.5 (19:50) 0.2 0 0 0.2 0
25-11-2019 17 (15:40) 8.8 (00:00) 12.9 9.72 (15:00) 5.83 (15:00) 2.4 0.6 1.8 0 0
24-11-2019 13.1 (14:40) 5.3 (00:00) 9.2 8.33 (17:00) 3.61 (23:59) 0 0 0 0 0
23-11-2019 12.3 (15:00) 7.2 (00:00) 9.8 18.61 (01:40) 7.78 (01:30) 2 2 0 0 0
22-11-2019 13.3 (15:30) 9.5 (00:00) 11.4 19.17 (22:00) 10.28 (22:10) 19.2 0.6 4.8 13.8 0
21-11-2019 10.9 (17:10) 7.7 (00:00) 9.3 6.11 (12:50) 3.61 (00:10) 5.6 0 0.2 1.4 4
20-11-2019 7.7 (23:59) 5 (00:00) 6.3 9.17 (13:10) 5.83 (13:20) 8.2 0 0.2 7.8 0.2
19-11-2019 11.3 (17:20) 2.8 (00:00) 7.1 4.44 (12:30) 3.06 (12:30) 0 0 0 0 0
18-11-2019 13.5 (15:20) 3.8 (00:00) 8.6 5 (00:10) 1.94 (22:40) 2.2 2 0.2 0 0
17-11-2019 11.2 (21:20) 2.9 (00:00) 7 13.61 (21:10) 7.22 (21:20) 11.8 0 2.8 1 8
16-11-2019 12.6 (15:00) 1 (00:00) 6.8 5.56 (15:50) 2.5 (20:50) 0 0 0 0 0
15-11-2019 12.4 (15:40) 3.3 (00:00) 7.8 11.11 (01:40) 5.28 (01:00) 0 0 0 0 0
14-11-2019 11.5 (00:00) 7.2 (00:00) 9.3 14.17 (10:30) 7.22 (08:20) 3.8 0 3.4 0.4 0
13-11-2019 19.2 (15:40) 11.1 (00:00) 15.2 15 (04:20) 8.61 (04:30) 1.4 0.6 0.8 0 0
12-11-2019 15.2 (15:20) 7.4 (00:00) 11.3 8.61 (23:40) 4.72 (23:40) 0 0 0 0 0
11-11-2019 11.1 (17:30) 8.2 (05:00) 9.7 4.44 (00:10) 1.67 (11:40) 0 0 0 0 0
10-11-2019 11.1 (00:00) 7.7 (00:00) 9.4 10.28 (00:20) 5.83 (00:20) 0 0 0 0 0
09-11-2019 14.5 (14:30) 4.1 (00:00) 9.3 7.78 (23:50) 3.89 (13:50) 1.2 0 0 0 1.2
08-11-2019 13.6 (16:20) 5.9 (00:00) 9.8 11.11 (05:20) 4.72 (05:20) 0 0 0 0 0

Gráficas

Temp. máximas Temp. mínimas Temp. medias Precipitaciones Rachas de viento máximas Velocidades máximas media en intervalos de 10 minutos

Datos horarios

Fecha y hora oficial Temperatura (ºC) Velocidad del viento (km/h) Dirección del viento Racha (km/h) Dirección de racha Precipitación (mm) Presión (hPa) Tendencia (hPa) Humedad (%)
2019-12-07 23:00:00 5.4 0 Calma 7 Nordeste 0 -- -- 99
2019-12-07 22:00:00 5.9 4 Nordeste 7 Este 0 -- -- 96
2019-12-07 21:00:00 6.7 2 Nordeste 4 Nordeste 0 -- -- 94
2019-12-07 20:00:00 7.4 0 Calma 4 Oeste 0 -- -- 91
2019-12-07 19:00:00 8.5 0 Calma 12 Este 0 -- -- 87
2019-12-07 18:00:00 10.5 3 Este 13 Este 0 -- -- 79
2019-12-07 17:00:00 14.1 6 Este 10 Este 0 -- -- 68
2019-12-07 16:00:00 14.5 2 Nordeste 6 Nordeste 0 -- -- 66
2019-12-07 15:00:00 13.9 3 Nordeste 8 Nordeste 0 -- -- 67
2019-12-07 14:00:00 11.8 4 Nordeste 10 Nordeste 0 -- -- 75
2019-12-07 13:00:00 9.6 6 Nordeste 12 Este 0 -- -- 83
2019-12-07 12:00:00 8 4 Este 10 Este 0 -- -- 92
2019-12-07 11:00:00 6.2 4 Nordeste 11 Nordeste 0 -- -- 99
2019-12-07 10:00:00 5.8 4 Este 11 Nordeste 0 -- -- 99
2019-12-07 09:00:00 5.8 3 Este 13 Este 0 -- -- 99
2019-12-07 08:00:00 5.6 3 Este 9 Este 0 -- -- 100
2019-12-07 07:00:00 5.4 3 Nordeste 8 Nordeste 0 -- -- 99
2019-12-07 06:00:00 5.6 0 Calma 6 Nordeste 0 -- -- 98
2019-12-07 05:00:00 6 3 Nordeste 15 Este 0 -- -- 97
2019-12-07 04:00:00 6.2 4 Este 11 Este 0 -- -- 96
2019-12-07 03:00:00 6.6 0 Calma 10 Este 0 -- -- 94
2019-12-07 02:00:00 7.4 5 Este 10 Este 0 -- -- 92
2019-12-07 01:00:00 7.6 2 Sur 4 Sudeste 0 -- -- 90
2019-12-07 00:00:00 8 3 Nordeste 9 Nordeste 0 -- -- 90
2019-12-06 23:00:00 8.4 0 Calma 7 Nordeste 0 -- -- 89
2019-12-06 22:00:00 9.2 6 Este 18 Este 0 -- -- 86
2019-12-06 21:00:00 10 8 Este 13 Este 0 -- -- 84
2019-12-06 20:00:00 10.4 7 Este 15 Este 0 -- -- 82
2019-12-06 19:00:00 11 3 Este 10 Este 0 -- -- 79
2019-12-06 18:00:00 12.4 5 Este 16 Este 0 -- -- 73
2019-12-06 17:00:00 14.5 8 Este 19 Este 0 -- -- 64
2019-12-06 16:00:00 14.7 9 Este 19 Nordeste 0 -- -- 63
2019-12-06 15:00:00 13.9 9 Este 21 Este 0 -- -- 67
2019-12-06 14:00:00 13 8 Nordeste 16 Nordeste 0 -- -- 72
2019-12-06 13:00:00 12.4 5 Este 22 Este 0 -- -- 75
2019-12-06 12:00:00 11 7 Este 18 Este 0 -- -- 77
2019-12-06 11:00:00 10.1 4 Este 17 Este 0 -- -- 86
2019-12-06 10:00:00 7.9 5 Este 13 Este 0 -- -- 95
2019-12-06 09:00:00 6.4 2 Este 11 Este 0 -- -- 97
2019-12-06 08:00:00 6.3 0 Calma 10 Nordeste 0 -- -- 97
2019-12-06 07:00:00 6.6 3 Este 14 Este 0 -- -- 96
2019-12-06 06:00:00 6.7 3 Este 21 Este 0 -- -- 95
2019-12-06 05:00:00 6.9 6 Este 18 Este 0 -- -- 95
2019-12-06 04:00:00 7 7 Este 15 Este 0 -- -- 95
2019-12-06 03:00:00 7.3 7 Este 17 Este 0 -- -- 95
2019-12-06 02:00:00 7.4 5 Este 13 Este 0 -- -- 93
2019-12-06 01:00:00 8 5 Este 20 Este 0 -- -- 92
2019-12-06 00:00:00 8.3 11 Este 24 Nordeste 0 -- -- 91
2019-12-05 23:00:00 8.4 4 Nordeste 16 Nordeste 0 -- -- 89
2019-12-05 22:00:00 8.9 9 Este 21 Este 0 -- -- 88
2019-12-05 21:00:00 9.3 8 Este 21 Este 0 -- -- 84
2019-12-05 20:00:00 9.4 7 Este 16 Nordeste 0 -- -- 82
2019-12-05 19:00:00 10.2 4 Nordeste 17 Este 0 -- -- 79
2019-12-05 18:00:00 11.3 6 Este 22 Este 0 -- -- 75
2019-12-05 17:00:00 11.8 8 Este 31 Este 0 -- -- 72
2019-12-05 16:00:00 12 9 Este 24 Nordeste 0 -- -- 69
2019-12-05 15:00:00 12.1 10 Este 30 Este 0 -- -- 69
2019-12-05 14:00:00 12.7 12 Nordeste 33 Nordeste 0 -- -- 68
2019-12-05 13:00:00 11 15 Nordeste 34 Nordeste 0 -- -- 73
2019-12-05 12:00:00 10.4 13 Nordeste 21 Nordeste 0 -- -- 75
2019-12-05 11:00:00 9.7 5 Nordeste 13 Este 0 -- -- 80
2019-12-05 10:00:00 8.5 5 Este 12 Nordeste 0 -- -- 84
2019-12-05 09:00:00 7.2 6 Nordeste 10 Nordeste 0 -- -- 89
2019-12-05 08:00:00 7.3 4 Nordeste 8 Nordeste 0 -- -- 91
2019-12-05 07:00:00 7.4 0 Calma 6 Este 0 -- -- 93
2019-12-05 06:00:00 7.7 2 Norte 5 Nordeste 0 -- -- 95
2019-12-05 05:00:00 7.9 0 Calma 3 Nordeste 0 -- -- 95
2019-12-05 04:00:00 7.9 0 Calma 5 Norte 0 -- -- 96
2019-12-05 03:00:00 8.1 0 Calma 5 Norte 0 -- -- 95
2019-12-05 02:00:00 8.3 3 Norte 5 Norte 0 -- -- 95
2019-12-05 01:00:00 8.1 0 Calma 4 Norte 0 -- -- 96
2019-12-05 00:00:00 8.3 3 Nordeste 6 Norte 0 -- -- 95
2019-12-04 23:00:00 8.7 0 Calma 6 Norte 0 -- -- 94
2019-12-04 22:00:00 8.9 3 Norte 12 Norte 0 -- -- 93
2019-12-04 21:00:00 8.9 2 Norte 9 Norte 0 -- -- 94
2019-12-04 20:00:00 9 3 Norte 9 Norte 0.2 -- -- 93
2019-12-04 19:00:00 9.2 2 Norte 16 Norte 0.2 -- -- 93
2019-12-04 18:00:00 9.8 6 Norte 18 Norte 0.2 -- -- 86
2019-12-04 17:00:00 11.2 3 Norte 13 Nordeste 0 -- -- 74
2019-12-04 16:00:00 11.8 2 Noroeste 8 Oeste 0 -- -- 73
2019-12-04 15:00:00 12.3 3 Norte 7 Norte 0 -- -- 67
2019-12-04 14:00:00 12.9 4 Nordeste 10 Sur 0 -- -- 65
2019-12-04 13:00:00 12.4 4 Oeste 12 Sudoeste 0 -- -- 68
2019-12-04 12:00:00 11.3 3 Sur 13 Nordeste 0 -- -- 73
2019-12-04 11:00:00 9.7 3 Este 8 Nordeste 0 -- -- 75
2019-12-04 10:00:00 6.7 5 Este 12 Nordeste 0 -- -- 87
2019-12-04 09:00:00 6 3 Nordeste 6 Nordeste 0 -- -- 88
2019-12-04 08:00:00 6 0 Calma 3 Norte 0 -- -- 87
2019-12-04 07:00:00 6.1 0 Calma 4 Este 0 -- -- 87
2019-12-04 06:00:00 6.2 2 Norte 9 Este 0 -- -- 85
2019-12-04 05:00:00 6.4 5 Nordeste 18 Nordeste 0 -- -- 83
2019-12-04 04:00:00 6.5 9 Nordeste 20 Nordeste 0 -- -- 82
2019-12-04 03:00:00 6.8 7 Nordeste 16 Nordeste 0 -- -- 78
2019-12-04 02:00:00 7.3 6 Este 19 Este 0 -- -- 75
2019-12-04 01:00:00 7.7 9 Este 27 Este 0 -- -- 79
2019-12-04 00:00:00 7.9 6 Nordeste 19 Nordeste 0 -- -- 83
2019-12-03 23:00:00 8.3 8 Este 20 Este 0 -- -- 82
2019-12-03 22:00:00 8.7 8 Este 21 Nordeste 0 -- -- 82
2019-12-03 21:00:00 9.1 10 Este 26 Nordeste 0 -- -- 82
2019-12-03 20:00:00 9.3 9 Este 22 Este 0 -- -- 83
2019-12-03 19:00:00 9.4 8 Este 23 Este 0 -- -- 83
2019-12-03 18:00:00 9.8 11 Este 32 Este 0 -- -- 80
2019-12-03 17:00:00 10.2 11 Nordeste 30 Nordeste 0 -- -- 79
2019-12-03 16:00:00 10.4 15 Este 29 Este 0 -- -- 78
2019-12-03 15:00:00 11 17 Nordeste 32 Nordeste 0 -- -- 76
2019-12-03 14:00:00 11.1 15 Este 35 Este 0 -- -- 74
2019-12-03 13:00:00 11.5 17 Este 35 Nordeste 0 -- -- 73
2019-12-03 12:00:00 10.7 14 Este 33 Nordeste 0 -- -- 76
2019-12-03 11:00:00 10.6 11 Nordeste 34 Nordeste 0 -- -- 75
2019-12-03 10:00:00 9.6 14 Nordeste 31 Nordeste 0 -- -- 79
2019-12-03 09:00:00 8.2 14 Nordeste 26 Nordeste 0 -- -- 85
2019-12-03 08:00:00 7.7 12 Este 27 Este 0 -- -- 86
2019-12-03 07:00:00 7.6 9 Este 26 Nordeste 0 -- -- 85
2019-12-03 06:00:00 8 13 Nordeste 27 Nordeste 0 -- -- 83
2019-12-03 05:00:00 8.3 9 Este 36 Nordeste 0 -- -- 81
2019-12-03 04:00:00 8.5 8 Este 38 Este 0 -- -- 79
2019-12-03 03:00:00 8.5 9 Este 27 Nordeste 0 -- -- 78
2019-12-03 02:00:00 8.7 10 Este 32 Nordeste 0 -- -- 78
2019-12-03 01:00:00 8.9 12 Nordeste 43 Nordeste 0 -- -- 81
2019-12-03 00:00:00 9.1 13 Este 32 Norte 0 -- -- 82
2019-12-02 23:00:00 9.7 17 Este 36 Nordeste 0 -- -- 79
2019-12-02 22:00:00 9.7 15 Este 40 Nordeste 0 -- -- 80
2019-12-02 21:00:00 10.2 16 Este 33 Nordeste 0 -- -- 77
2019-12-02 20:00:00 10.3 18 Nordeste 33 Nordeste 0 -- -- 78
2019-12-02 19:00:00 10 13 Nordeste 27 Este 0 -- -- 82
2019-12-02 18:00:00 10.4 13 Nordeste 33 Nordeste 0 -- -- 79
2019-12-02 17:00:00 10.6 20 Este 36 Este 0 -- -- 78
2019-12-02 16:00:00 10.9 17 Este 39 Este 0 -- -- 77
2019-12-02 15:00:00 10.7 20 Este 47 Este 0 -- -- 77
2019-12-02 14:00:00 11.3 20 Este 42 Este 0 -- -- 75
2019-12-02 13:00:00 10 16 Este 36 Nordeste 0 -- -- 78
2019-12-02 12:00:00 10.2 18 Este 36 Este 0 -- -- 77
2019-12-02 11:00:00 9.4 16 Este 36 Nordeste 0 -- -- 82
2019-12-02 10:00:00 9.2 16 Este 33 Nordeste 0 -- -- 90
2019-12-02 09:00:00 8.2 9 Este 23 Nordeste 0 -- -- 94
2019-12-02 08:00:00 8 10 Este 22 Este 0 -- -- 94
2019-12-02 07:00:00 7.8 7 Este 18 Este 0 -- -- 97
2019-12-02 06:00:00 7.4 5 Este 14 Este 0 -- -- 97
2019-12-02 05:00:00 7.2 5 Este 15 Este 0 -- -- 97
2019-12-02 04:00:00 7.2 5 Este 13 Este 0 -- -- 96
2019-12-02 03:00:00 7.4 3 Este 11 Este 0 -- -- 97
2019-12-02 02:00:00 7.4 2 Este 9 Este 0 -- -- 97
2019-12-02 01:00:00 7.5 0 Calma 5 Este 0 -- -- 97
2019-12-02 00:00:00 7.6 0 Calma 7 Este 0 -- -- 97
2019-12-01 23:00:00 7.7 3 Este 8 Nordeste 0.4 -- -- 98
2019-12-01 22:00:00 8.1 0 Calma 4 Este 1.6 -- -- 98
2019-12-01 21:00:00 8.2 0 Calma 10 Noroeste 0 -- -- 98
2019-12-01 20:00:00 8.2 0 Calma 5 Este 0 -- -- 97
2019-12-01 19:00:00 8.5 4 Nordeste 8 Nordeste 0 -- -- 97
2019-12-01 18:00:00 8.9 3 Sudeste 12 Sur 0 -- -- 97
2019-12-01 17:00:00 9.5 7 Sudoeste 12 Sudoeste 0 -- -- 96
2019-12-01 16:00:00 8.5 3 Sur 18 Sudoeste 1.8 -- -- 97
2019-12-01 15:00:00 9.4 6 Sudoeste 21 Sur 4.2 -- -- 97
2019-12-01 14:00:00 9.6 19 Sur 37 Sur 0.2 -- -- 94
2019-12-01 13:00:00 9.5 17 Sur 30 Sur 0 -- -- 94
2019-12-01 12:00:00 8.8 16 Sur 30 Sur 0 -- -- 96
2019-12-01 11:00:00 8.4 11 Sur 23 Sudoeste 0 -- -- 95
2019-12-01 10:00:00 7.7 8 Sur 22 Sudoeste 0 -- -- 98
2019-12-01 09:00:00 7.6 8 Sur 21 Sur 0 -- -- 97
2019-12-01 08:00:00 7.3 6 Sudoeste 12 Sur 0 -- -- 99
2019-12-01 07:00:00 7.4 8 Sudoeste 12 Sudoeste 0 -- -- 98
2019-12-01 06:00:00 7.3 4 Sur 9 Sur 0 -- -- 96
2019-12-01 05:00:00 8.1 0 Calma 13 Oeste 0 -- -- 92
2019-12-01 04:00:00 8.6 5 Oeste 15 Sudoeste 0 -- -- 91
2019-12-01 03:00:00 9.3 5 Oeste 19 Sudoeste 0 -- -- 94
2019-12-01 02:00:00 9.1 7 Sudoeste 13 Sudoeste 0 -- -- 97
2019-12-01 01:00:00 9.3 10 Sudoeste 18 Sudoeste 0 -- -- 96
2019-12-01 00:00:00 9.4 9 Sudoeste 22 Oeste 0 -- -- 93
2019-11-30 23:00:00 9.7 15 Oeste 35 Noroeste 0.8 -- -- 93
2019-11-30 22:00:00 12 12 Sudoeste 46 Sudoeste 0 -- -- 91
2019-11-30 21:00:00 13.2 14 Sudoeste 30 Sudoeste 0 -- -- 79
2019-11-30 20:00:00 13.3 19 Sudoeste 34 Sur 0 -- -- 78
2019-11-30 19:00:00 13.4 10 Sudoeste 25 Sudoeste 0 -- -- 77
2019-11-30 18:00:00 13.7 14 Sudoeste 26 Sudoeste 0 -- -- 75
2019-11-30 17:00:00 14.2 6 Noroeste 20 Oeste 0 -- -- 77
2019-11-30 16:00:00 14.6 5 Oeste 28 Sur 0 -- -- 77
2019-11-30 15:00:00 14.5 5 Oeste 19 Sudoeste 0 -- -- 79
2019-11-30 14:00:00 14.2 8 Sudoeste 13 Sur 0 -- -- 80
2019-11-30 13:00:00 13.4 8 Sur 14 Sudoeste 0 -- -- 85
2019-11-30 12:00:00 13.4 9 Sudoeste 13 Sur 0 -- -- 86
2019-11-30 11:00:00 12.5 5 Sur 11 Sur 0 -- -- 90
2019-11-30 10:00:00 11.1 4 Sur 11 Sur 0 -- -- 93
2019-11-30 09:00:00 9.7 5 Sur 10 Sur 0 -- -- 98
2019-11-30 08:00:00 10 0 Calma 6 Sur 0 -- -- 96
2019-11-30 07:00:00 10.2 2 Sur 6 Sur 0 -- -- 95
2019-11-30 06:00:00 10.4 0 Calma 2 Sudoeste 0 -- -- 95
2019-11-30 05:00:00 10.6 0 Calma 6 Sudoeste 0 -- -- 91
2019-11-30 04:00:00 11 0 Calma 10 Sudoeste 0 -- -- 91
2019-11-30 03:00:00 11.5 3 Sur 9 Sur 0 -- -- 90
2019-11-30 02:00:00 12.2 0 Calma 4 Sudoeste 0 -- -- 87
2019-11-30 01:00:00 12 0 Calma 4 Sur 0 -- -- 89
2019-11-30 00:00:00 12.4 2 Sur 4 Oeste 0 -- -- 88
2019-11-29 23:00:00 12.9 0 Calma 6 Sudoeste 0 -- -- 86
2019-11-29 22:00:00 13.2 0 Calma 5 Nordeste 0 -- -- 86
2019-11-29 21:00:00 13.5 0 Calma 3 Nordeste 0 -- -- 85
2019-11-29 20:00:00 13.7 0 Calma 5 Sur 0 -- -- 81
2019-11-29 19:00:00 13.8 0 Calma 4 Sur 0 -- -- 83
2019-11-29 18:00:00 14.1 0 Calma 3 Oeste 0 -- -- 81
2019-11-29 17:00:00 14.4 0 Calma 6 Oeste 0 -- -- 80
2019-11-29 16:00:00 14.7 3 Oeste 10 Sudoeste 0 -- -- 79
2019-11-29 15:00:00 14.6 3 Sur 11 Sudoeste 0 -- -- 78
2019-11-29 14:00:00 14.3 8 Sudoeste 14 Sudoeste 0 -- -- 80
2019-11-29 13:00:00 13.9 7 Sur 13 Sur 0 -- -- 83
2019-11-29 12:00:00 13.2 8 Sur 15 Sudoeste 0 -- -- 85
2019-11-29 11:00:00 12.1 10 Sudoeste 16 Sudoeste 0 -- -- 89
2019-11-29 10:00:00 11.3 4 Sudoeste 17 Sudoeste 0 -- -- 92
2019-11-29 09:00:00 10.8 7 Sur 16 Sudoeste 0 -- -- 94
2019-11-29 08:00:00 10.8 7 Sudoeste 15 Sudoeste 0 -- -- 93
2019-11-29 07:00:00 11 7 Sudoeste 19 Sudoeste 0 -- -- 92
2019-11-29 06:00:00 10.9 12 Sudoeste 19 Sudoeste 0 -- -- 92
2019-11-29 05:00:00 10.9 14 Sudoeste 19 Sudoeste 0 -- -- 91
2019-11-29 04:00:00 11 15 Sudoeste 21 Sudoeste 0 -- -- 90
2019-11-29 03:00:00 11.2 13 Sudoeste 17 Sur 0 -- -- 88
2019-11-29 02:00:00 11.1 12 Sudoeste 17 Sudoeste 0 -- -- 89
2019-11-29 01:00:00 11.2 9 Sudoeste 19 Sudoeste 0 -- -- 90
2019-11-29 00:00:00 11.5 14 Sur 21 Sudoeste 0 -- -- 88
2019-11-28 23:00:00 11.6 13 Sudoeste 20 Sudoeste 0 -- -- 89
2019-11-28 22:00:00 12 11 Sur 18 Sur 0 -- -- 86
2019-11-28 21:00:00 12.6 4 Sur 11 Sudoeste 0 -- -- 76
2019-11-28 20:00:00 13.1 2 Sudoeste 12 Sur 0 -- -- 75
2019-11-28 19:00:00 13.1 2 Sudoeste 10 Oeste 0 -- -- 77
2019-11-28 18:00:00 13.1 2 Sudoeste 6 Sur 0 -- -- 78
2019-11-28 17:00:00 13.4 6 Sudoeste 10 Sur 0 -- -- 76
2019-11-28 16:00:00 13.3 4 Sudoeste 14 Sur 0 -- -- 79
2019-11-28 15:00:00 13 6 Sudoeste 15 Sur 0 -- -- 81
2019-11-28 14:00:00 12.2 8 Sudoeste 20 Sudoeste 0 -- -- 88
2019-11-28 13:00:00 11.6 5 Sur 14 Sur 0 -- -- 89
2019-11-28 12:00:00 10.8 10 Sudoeste 14 Sudoeste 0 -- -- 93
2019-11-28 11:00:00 9.8 6 Sudoeste 18 Sudoeste 0 -- -- 95
2019-11-28 10:00:00 9.8 9 Sudoeste 14 Sudoeste 0 -- -- 95
2019-11-28 09:00:00 9.2 10 Sudoeste 14 Sur 0 -- -- 95
2019-11-28 08:00:00 9 7 Sudoeste 13 Sudoeste 0 -- -- 96
2019-11-28 07:00:00 9 7 Sudoeste 13 Sudoeste 0 -- -- 95
2019-11-28 06:00:00 8.8 9 Sudoeste 13 Sudoeste 0 -- -- 96
2019-11-28 05:00:00 8.9 4 Sudoeste 7 Sur 0 -- -- 94
2019-11-28 04:00:00 9 0 Calma 13 Sudoeste 0 -- -- 93
2019-11-28 03:00:00 9.2 7 Sudoeste 11 Sur 0 -- -- 91
2019-11-28 02:00:00 10.3 6 Oeste 14 Oeste 0 -- -- 88
2019-11-28 01:00:00 10.8 8 Oeste 15 Oeste 0 -- -- 86
2019-11-28 00:00:00 10.5 8 Sudoeste 18 Sudoeste 0 -- -- 83
2019-11-27 23:00:00 11.3 8 Sudoeste 18 Sur 0 -- -- 79
2019-11-27 22:00:00 11 4 Sudoeste 13 Sudoeste 0 -- -- 79
2019-11-27 21:00:00 11.8 6 Sudoeste 14 Sudoeste 0 -- -- 76
2019-11-27 20:00:00 11.7 3 Noroeste 9 Oeste 0 -- -- 77
2019-11-27 19:00:00 11.5 2 Noroeste 8 Oeste 0 -- -- 79
2019-11-27 18:00:00 12.1 3 Oeste 18 Oeste 0 -- -- 77
2019-11-27 17:00:00 13.5 6 Noroeste 19 Noroeste 0 -- -- 73
2019-11-27 16:00:00 14.2 11 Oeste 26 Oeste 0 -- -- 73
2019-11-27 15:00:00 14 5 Oeste 17 Oeste 0 -- -- 81
2019-11-27 14:00:00 12.2 4 Noroeste 22 Oeste 0 -- -- 91
2019-11-27 06:00:00 -- -- -- -- -- -- -- -- --
2019-11-27 05:00:00 -- -- -- -- -- -- -- -- --
2019-11-27 04:00:00 -- -- -- -- -- -- -- -- --
2019-11-27 03:00:00 12 11 Sudoeste 26 Sudoeste 0 -- -- 93
2019-11-27 02:00:00 12.5 12 Sudoeste 31 Sudoeste 0 -- -- 92
2019-11-27 01:00:00 13 5 Sudoeste 24 Sudoeste 0 -- -- 93
2019-11-27 00:00:00 13.4 4 Oeste 32 Sudoeste 0 -- -- 96
2019-11-26 23:00:00 13.2 15 Sudoeste 45 Sudoeste 0 -- -- 96
2019-11-26 22:00:00 13.2 23 Sudoeste 48 Sur 0 -- -- 96
2019-11-26 21:00:00 13 24 Sudoeste 52 Sudoeste 0 -- -- 96
2019-11-26 20:00:00 13.7 22 Sudoeste 48 Sudoeste 0 -- -- 89
2019-11-26 19:00:00 13.9 9 Sudoeste 31 Sur 0 -- -- 88
2019-11-26 18:00:00 14 19 Sur 37 Sur 0 -- -- 89
2019-11-26 17:00:00 14.1 13 Sur 36 Sudoeste 0 -- -- 91
2019-11-26 16:00:00 14.7 21 Sudoeste 39 Sudoeste 0.2 -- -- 88
2019-11-26 15:00:00 13.6 11 Sur 21 Sur 0 -- -- 100
2019-11-26 14:00:00 13 9 Sur 24 Sur 0 -- -- 100
2019-11-26 13:00:00 12.5 13 Sur 22 Sur 0 -- -- 99
2019-11-26 12:00:00 12.2 10 Sur 26 Sur 0 -- -- 96
2019-11-26 11:00:00 12 13 Sur 28 Sudoeste 0 -- -- 94
2019-11-26 10:00:00 11.9 10 Sur 21 Sudoeste 0 -- -- 92
2019-11-26 09:00:00 11.3 11 Sur 15 Sudoeste 0 -- -- 97
2019-11-26 08:00:00 10.9 10 Sudoeste 17 Sudoeste 0 -- -- 100
2019-11-26 07:00:00 11.1 8 Sudoeste 14 Sudoeste 0 -- -- 100
2019-11-26 06:00:00 11.2 7 Sudoeste 10 Sudoeste 0 -- -- 99
2019-11-26 05:00:00 11.3 0 Calma 13 Oeste 0 -- -- 97
2019-11-26 04:00:00 11.7 6 Oeste 13 Oeste 0 -- -- 96
2019-11-26 03:00:00 12 6 Sudoeste 10 Sudoeste 0 -- -- 96
2019-11-26 02:00:00 12 6 Sudoeste 15 Sudoeste 0 -- -- 94
2019-11-26 01:00:00 12.4 10 Sudoeste 15 Sudoeste 0 -- -- 92
2019-11-26 00:00:00 13 8 Sudoeste 13 Sur 0 -- -- 90
2019-11-25 23:00:00 13.2 3 Sudoeste 9 Sudoeste 0 -- -- 87
2019-11-25 22:00:00 13.2 4 Sudoeste 13 Sudoeste 0 -- -- 87
2019-11-25 21:00:00 13.5 6 Oeste 11 Oeste 0 -- -- 84
2019-11-25 20:00:00 13.2 2 Oeste 9 Oeste 0 -- -- 87
2019-11-25 19:00:00 13.7 2 Sudoeste 11 Sudoeste 0 -- -- 83
2019-11-25 18:00:00 14.2 4 Oeste 14 Oeste 0 -- -- 82
2019-11-25 17:00:00 15.1 7 Noroeste 18 Oeste 0 -- -- 82
2019-11-25 16:00:00 16.5 6 Oeste 28 Oeste 0 -- -- 76
2019-11-25 15:00:00 15.9 21 Oeste 35 Oeste 0 -- -- 77
2019-11-25 14:00:00 14 8 Oeste 31 Sur 0 -- -- 100
2019-11-25 13:00:00 13.6 10 Sudoeste 26 Oeste 0 -- -- 100
2019-11-25 12:00:00 12.9 8 Sudoeste 23 Sudoeste 0 -- -- 100
2019-11-25 11:00:00 11.7 10 Sur 21 Sur 0.2 -- -- 100
2019-11-25 10:00:00 11 12 Sur 23 Sur 0.2 -- -- 100
2019-11-25 09:00:00 10.6 14 Sur 23 Sur 0.2 -- -- 100
2019-11-25 08:00:00 10.2 6 Sur 18 Sur 0.4 -- -- 100
2019-11-25 07:00:00 9.9 10 Sudoeste 19 Sur 0.8 -- -- 100
2019-11-25 06:00:00 9.8 13 Sur 24 Sur 0 -- -- 99
2019-11-25 05:00:00 9.4 14 Sur 24 Sur 0 -- -- 100
2019-11-25 04:00:00 8.9 14 Sudoeste 31 Sur 0.2 -- -- 99
2019-11-25 03:00:00 8.8 18 Sur 27 Sur 0.4 -- -- 97
2019-11-25 02:00:00 9.6 10 Sur 25 Sudoeste 0 -- -- 89
2019-11-25 01:00:00 10.2 13 Sur 24 Sudoeste 0 -- -- 84
2019-11-25 00:00:00 10.3 13 Sur 21 Sur 0 -- -- 83
2019-11-24 23:00:00 10.2 5 Sur 12 Sudoeste 0 -- -- 83
2019-11-24 22:00:00 10.7 5 Sur 14 Sudoeste 0 -- -- 81
2019-11-24 21:00:00 10.7 6 Sudoeste 17 Oeste 0 -- -- 79
2019-11-24 20:00:00 10.8 8 Oeste 16 Noroeste 0 -- -- 78
2019-11-24 19:00:00 10.5 4 Oeste 14 Oeste 0 -- -- 78
2019-11-24 18:00:00 10.7 7 Oeste 27 Noroeste 0 -- -- 77
2019-11-24 17:00:00 11.1 8 Noroeste 30 Oeste 0 -- -- 74
2019-11-24 16:00:00 11 4 Noroeste 17 Noroeste 0 -- -- 78
2019-11-24 15:00:00 12.2 7 Oeste 22 Oeste 0 -- -- 72
2019-11-24 14:00:00 11.7 8 Oeste 21 Oeste 0 -- -- 74
2019-11-24 13:00:00 10.3 4 Oeste 16 Oeste 0 -- -- 79
2019-11-24 12:00:00 8.9 5 Oeste 19 Noroeste 0 -- -- 84
2019-11-24 11:00:00 6.9 3 Oeste 9 Noroeste 0 -- -- 94
2019-11-24 10:00:00 6.2 2 Oeste 8 Oeste 0 -- -- 98
2019-11-24 09:00:00 5.7 2 Noroeste 17 Sudoeste 0 -- -- 98
2019-11-24 08:00:00 5.5 4 Noroeste 15 Oeste 0 -- -- 98
2019-11-24 07:00:00 5.4 7 Oeste 21 Noroeste 0 -- -- 98
2019-11-24 06:00:00 5.5 5 Noroeste 16 Oeste 0 -- -- 97
2019-11-24 05:00:00 5.7 3 Noroeste 15 Oeste 0 -- -- 96
2019-11-24 04:00:00 6.1 4 Noroeste 13 Noroeste 0 -- -- 95
2019-11-24 03:00:00 6.5 3 Oeste 23 Oeste 0 -- -- 92
2019-11-24 02:00:00 6.9 6 Oeste 26 Oeste 0 -- -- 89
2019-11-24 01:00:00 7.2 4 Noroeste 17 Noroeste 0 -- -- 86
2019-11-24 00:00:00 7.2 5 Oeste 21 Oeste 0 -- -- 86
2019-11-23 23:00:00 7.9 6 Noroeste 28 Oeste 0 -- -- 82
2019-11-23 22:00:00 8.8 9 Oeste 23 Norte 0 -- -- 75
2019-11-23 21:00:00 9.7 9 Oeste 21 Noroeste 0 -- -- 70
2019-11-23 20:00:00 9.6 5 Noroeste 17 Noroeste 0 -- -- 71
2019-11-23 19:00:00 9.9 6 Oeste 24 Noroeste 0 -- -- 69
2019-11-23 18:00:00 10.2 5 Oeste 22 Noroeste 0 -- -- 68
2019-11-23 17:00:00 11.6 10 Noroeste 36 Norte 0 -- -- 62
2019-11-23 16:00:00 12.1 13 Noroeste 39 Oeste 0 -- -- 60
2019-11-23 15:00:00 12.3 19 Oeste 42 Oeste 0 -- -- 61
2019-11-23 14:00:00 11.7 22 Oeste 46 Oeste 0 -- -- 69
2019-11-23 13:00:00 10.8 13 Noroeste 48 Oeste 0 -- -- 70
2019-11-23 12:00:00 9.5 15 Noroeste 46 Noroeste 0 -- -- 78
2019-11-23 11:00:00 8.7 16 Oeste 37 Noroeste 0 -- -- 83
2019-11-23 10:00:00 8.1 15 Oeste 53 Oeste 0 -- -- 84
2019-11-23 09:00:00 8.1 17 Oeste 44 Noroeste 0 -- -- 83
2019-11-23 08:00:00 8.2 15 Oeste 44 Noroeste 0 -- -- 82
2019-11-23 07:00:00 8.5 14 Oeste 36 Noroeste 0 -- -- 80
2019-11-23 06:00:00 8.8 19 Oeste 42 Noroeste 0 -- -- 81
2019-11-23 05:00:00 8.7 21 Oeste 42 Noroeste 0 -- -- 85
2019-11-23 04:00:00 8.6 21 Noroeste 50 Oeste 0.2 -- -- 85
2019-11-23 03:00:00 8.9 24 Oeste 53 Noroeste 0 -- -- 90
2019-11-23 02:00:00 9.2 23 Oeste 67 Oeste 0.8 -- -- 96
2019-11-23 01:00:00 9.3 14 Oeste 43 Oeste 1 -- -- 94
2019-11-23 00:00:00 10.7 22 Oeste 55 Oeste 0 -- -- 80
2019-11-22 23:00:00 11.1 30 Oeste 64 Oeste 0 -- -- 80
2019-11-22 22:00:00 11.6 36 Oeste 69 Oeste 0 -- -- 81
2019-11-22 21:00:00 12.5 26 Oeste 57 Oeste 0 -- -- 78
2019-11-22 20:00:00 12.7 18 Noroeste 48 Oeste 0 -- -- 81
2019-11-22 19:00:00 13 26 Oeste 54 Oeste 0 -- -- 78
2019-11-22 18:00:00 13.1 28 Oeste 57 Oeste 0 -- -- 88
2019-11-22 17:00:00 12.6 14 Oeste 31 Oeste 4.6 -- -- 99
2019-11-22 16:00:00 13 13 Oeste 67 Sur 5.2 -- -- 99
2019-11-22 15:00:00 12.9 18 Sudoeste 51 Sudoeste 2.8 -- -- 99
2019-11-22 14:00:00 12.7 35 Sudoeste 66 Sudoeste 0.8 -- -- 97
2019-11-22 13:00:00 11.9 17 Sur 45 Sur 0.4 -- -- 100
2019-11-22 12:00:00 11.4 24 Sur 48 Sur 3.8 -- -- 99
2019-11-22 11:00:00 11.1 24 Sur 42 Sur 0.4 -- -- 97
2019-11-22 10:00:00 10.6 16 Sur 35 Sur 0 -- -- 96
2019-11-22 09:00:00 10.2 11 Sur 23 Sur 0 -- -- 95
2019-11-22 08:00:00 10 12 Sur 30 Sur 0.4 -- -- 96
2019-11-22 07:00:00 9.8 10 Sur 24 Sur 0.2 -- -- 96
2019-11-22 06:00:00 9.8 10 Sur 23 Sudeste 0 -- -- 96
2019-11-22 05:00:00 9.8 7 Sur 19 Sudoeste 0 -- -- 98
2019-11-22 04:00:00 9.7 7 Sudoeste 16 Sudoeste 0 -- -- 98
2019-11-22 03:00:00 9.6 4 Sudoeste 13 Sur 0 -- -- 99
2019-11-22 02:00:00 9.8 6 Sur 14 Sudoeste 0.6 -- -- 98
2019-11-22 01:00:00 9.8 6 Sur 16 Sur 0 -- -- 98
2019-11-22 00:00:00 9.9 5 Sudoeste 12 Sudoeste 0 -- -- 99
2019-11-21 23:00:00 9.8 5 Sur 13 Sur 0 -- -- 99
2019-11-21 22:00:00 9.9 6 Sur 15 Sudoeste 1.2 -- -- 99
2019-11-21 21:00:00 9.9 5 Sur 12 Sur 1.8 -- -- 99
2019-11-21 20:00:00 10 2 Nordeste 5 Nordeste 1 -- -- 97
2019-11-21 19:00:00 10.1 0 Calma 4 Sur 0 -- -- 96
2019-11-21 18:00:00 10.3 0 Calma 7 Sudoeste 0 -- -- 94
2019-11-21 17:00:00 10.6 3 Sudoeste 9 Sudoeste 0.2 -- -- 93
2019-11-21 16:00:00 10.4 5 Sudoeste 10 Sudoeste 0.4 -- -- 94
2019-11-21 15:00:00 10.4 8 Sudoeste 15 Sudoeste 0.2 -- -- 93
2019-11-21 14:00:00 10.2 7 Sudoeste 15 Sur 0.2 -- -- 95
2019-11-21 13:00:00 10.1 8 Sudoeste 22 Sur 0.4 -- -- 95
2019-11-21 12:00:00 9.8 6 Sudoeste 17 Sudoeste 0 -- -- 96
2019-11-21 11:00:00 9 8 Sur 18 Sur 0 -- -- 97
2019-11-21 10:00:00 8.8 7 Sur 19 Sudoeste 0 -- -- 96
2019-11-21 09:00:00 8.4 9 Sudoeste 17 Sudoeste 0.2 -- -- 97
2019-11-21 08:00:00 8.3 6 Sur 15 Sur 0 -- -- 97
2019-11-21 07:00:00 8.3 9 Sudoeste 20 Sudoeste 0 -- -- 97
2019-11-21 06:00:00 8.1 7 Sudoeste 17 Sudoeste 0 -- -- 98
2019-11-21 05:00:00 8.1 8 Sudoeste 21 Sudoeste 0 -- -- 98
2019-11-21 04:00:00 8 5 Sur 11 Sudoeste 0 -- -- 98
2019-11-21 03:00:00 7.9 7 Sur 17 Sudoeste 0 -- -- 98
2019-11-21 02:00:00 7.8 9 Sudoeste 18 Sudoeste 0 -- -- 98
2019-11-21 01:00:00 7.8 13 Sur 21 Sur 0 -- -- 97
2019-11-21 00:00:00 7.7 15 Sur 23 Sudoeste 0 -- -- 99
2019-11-20 23:00:00 7.6 7 Sudoeste 14 Sur 0.2 -- -- 99
2019-11-20 22:00:00 7.5 5 Sudoeste 17 Sur 0 -- -- 99
2019-11-20 21:00:00 7.5 9 Sudoeste 19 Sudoeste 0 -- -- 98
2019-11-20 20:00:00 7.2 6 Sudoeste 17 Sudoeste 0 -- -- 99
2019-11-20 19:00:00 6.9 9 Sur 27 Sur 0 -- -- 98
2019-11-20 18:00:00 6.5 15 Sur 26 Sur 1.8 -- -- 98
2019-11-20 17:00:00 6.3 6 Sur 19 Sur 1.4 -- -- 97
2019-11-20 16:00:00 6.4 12 Sur 22 Sudoeste 2.4 -- -- 98
2019-11-20 15:00:00 6.3 12 Sur 23 Sur 1.6 -- -- 96
2019-11-20 14:00:00 6.8 11 Sur 33 Sur 0.4 -- -- 94
2019-11-20 13:00:00 6.8 16 Sur 26 Sur 0.2 -- -- 88
2019-11-20 12:00:00 6.4 12 Sur 27 Sudoeste 0.2 -- -- 88
2019-11-20 11:00:00 6.3 6 Sur 10 Sur 0 -- -- 87
2019-11-20 10:00:00 6.1 3 Sur 12 Sur 0 -- -- 86
2019-11-20 09:00:00 5.3 5 Sur 10 Sur 0 -- -- 86
2019-11-20 08:00:00 5.6 5 Sur 19 Sur 0 -- -- 85
2019-11-20 07:00:00 5.8 6 Sur 12 Sudoeste 0 -- -- 84
2019-11-20 06:00:00 5.2 3 Sur 8 Sur 0 -- -- 88
2019-11-20 05:00:00 5.3 0 Calma 9 Sur 0 -- -- 87
2019-11-20 04:00:00 5.4 0 Calma 4 Sur 0 -- -- 89
2019-11-20 03:00:00 5.6 0 Calma 8 Sudoeste 0 -- -- 87
2019-11-20 02:00:00 6.2 3 Sur 6 Sur 0 -- -- 85
2019-11-20 01:00:00 5.5 3 Sudoeste 5 Sudoeste 0 -- -- 90
2019-11-20 00:00:00 6.5 0 Calma 6 Sur 0 -- -- 83
2019-11-19 23:00:00 6.3 2 Este 8 Sur 0 -- -- 85
2019-11-19 22:00:00 7.1 0 Calma 2 Este 0 -- -- 81
2019-11-19 21:00:00 7.5 0 Calma 0 Calma 0 -- -- 81
2019-11-19 20:00:00 8 0 Calma 0 Calma 0 -- -- 80
2019-11-19 19:00:00 8.7 0 Calma 2 Sudoeste 0 -- -- 76
2019-11-19 18:00:00 10 0 Calma 4 Sur 0 -- -- 71
2019-11-19 17:00:00 11.1 2 Sur 8 Oeste 0 -- -- 65
2019-11-19 16:00:00 10.3 4 Sudoeste 8 Oeste 0 -- -- 66
2019-11-19 15:00:00 10.2 4 Sudoeste 12 Sur 0 -- -- 69
2019-11-19 14:00:00 10.1 7 Sudoeste 15 Sudoeste 0 -- -- 69
2019-11-19 13:00:00 9.2 8 Sur 16 Sudoeste 0 -- -- 75
2019-11-19 12:00:00 9.1 8 Sudoeste 14 Sudoeste 0 -- -- 76
2019-11-19 11:00:00 6.8 0 Calma 3 Sudoeste 0 -- -- 95
2019-11-19 10:00:00 4.6 0 Calma 6 Sur 0 -- -- 96
2019-11-19 09:00:00 3.2 0 Calma 4 Sur 0 -- -- 96
2019-11-19 08:00:00 2.8 0 Calma 4 Sur 0 -- -- 97
2019-11-19 07:00:00 3 0 Calma 3 Norte 0 -- -- 97
2019-11-19 06:00:00 3.3 0 Calma 3 Sudoeste 0 -- -- 96
2019-11-19 05:00:00 3.5 0 Calma 3 Sur 0 -- -- 96
2019-11-19 04:00:00 4 2 Norte 5 Nordeste 0 -- -- 94
2019-11-19 03:00:00 4.4 0 Calma 3 Nordeste 0 -- -- 92
2019-11-19 02:00:00 4.9 2 Este 5 Nordeste 0 -- -- 90
2019-11-19 01:00:00 5.2 0 Calma 5 Norte 0 -- -- 88
2019-11-19 00:00:00 6.1 0 Calma 2 Oeste 0 -- -- 85
2019-11-18 23:00:00 6.3 0 Calma 12 Este 0 -- -- 84
2019-11-18 22:00:00 7.1 0 Calma 3 Este 0 -- -- 80
2019-11-18 21:00:00 7.9 0 Calma 6 Oeste 0 -- -- 76
2019-11-18 20:00:00 8.5 0 Calma 6 Noroeste 0 -- -- 73
2019-11-18 19:00:00 8.8 0 Calma 14 Oeste 0 -- -- 73
2019-11-18 18:00:00 9.9 3 Oeste 11 Noroeste 0 -- -- 71
2019-11-18 17:00:00 12.9 3 Noroeste 12 Oeste 0 -- -- 61
2019-11-18 16:00:00 13.3 3 Oeste 13 Norte 0 -- -- 60
2019-11-18 15:00:00 12.6 4 Oeste 13 Oeste 0 -- -- 66
2019-11-18 14:00:00 11.5 4 Oeste 13 Oeste 0 -- -- 69
2019-11-18 13:00:00 10.6 3 Noroeste 8 Oeste 0 -- -- 71
2019-11-18 12:00:00 10.1 3 Oeste 9 Sur 0 -- -- 83
2019-11-18 11:00:00 8 2 Oeste 7 Oeste 0 -- -- 90
2019-11-18 10:00:00 6.3 0 Calma 6 Noroeste 0 -- -- 98
2019-11-18 09:00:00 4.3 0 Calma 6 Norte 0 -- -- 98
2019-11-18 08:00:00 3.9 0 Calma 2 Oeste 0 -- -- 97
2019-11-18 07:00:00 4.4 0 Calma 5 Nordeste 0.2 -- -- 95
2019-11-18 06:00:00 5.2 0 Calma 11 Noroeste 0 -- -- 94
2019-11-18 05:00:00 5.8 3 Noroeste 12 Norte 0 -- -- 94
2019-11-18 04:00:00 6.4 2 Noroeste 13 Nordeste 0 -- -- 97
2019-11-18 03:00:00 7.4 2 Noroeste 17 Oeste 0 -- -- 96
2019-11-18 02:00:00 8.4 4 Noroeste 14 Noroeste 0 -- -- 95
2019-11-18 01:00:00 9.6 2 Norte 18 Noroeste 2 -- -- 98
2019-11-18 00:00:00 10.5 9 Noroeste 34 Oeste 0.6 -- -- 95
2019-11-17 23:00:00 11 16 Oeste 32 Oeste 1.2 -- -- 98
2019-11-17 22:00:00 11 14 Oeste 49 Oeste 1.2 -- -- 100
2019-11-17 21:00:00 10.5 23 Oeste 48 Oeste 1.2 -- -- 100
2019-11-17 20:00:00 8.1 8 Sudoeste 22 Sudoeste 1 -- -- 100
2019-11-17 19:00:00 7.8 13 Sur 19 Sur 2.8 -- -- 100
2019-11-17 18:00:00 7.4 12 Sudoeste 23 Sudoeste 0.6 -- -- 100
2019-11-17 17:00:00 7.4 20 Sudoeste 27 Sur 0 -- -- 100
2019-11-17 16:00:00 7.1 13 Sur 23 Sudoeste 0 -- -- 100
2019-11-17 15:00:00 6.7 14 Sur 30 Sur 0 -- -- 100
2019-11-17 14:00:00 6.3 16 Sur 29 Sur 0 -- -- 100
2019-11-17 13:00:00 5.6 21 Sur 30 Sur 0.4 -- -- 100
2019-11-17 12:00:00 5.2 14 Sur 28 Sur 1 -- -- 100
2019-11-17 11:00:00 4.2 10 Sudoeste 20 Sur 1.2 -- -- 99
2019-11-17 10:00:00 3.8 10 Sur 18 Sur 0.6 -- -- 98
2019-11-17 09:00:00 3.1 11 Sudoeste 18 Sudoeste 0 -- -- 95
2019-11-17 08:00:00 3.3 4 Sudoeste 15 Sur 0 -- -- 90
2019-11-17 07:00:00 3.4 3 Sur 10 Sur 0 -- -- 87
2019-11-17 06:00:00 3.3 3 Sudoeste 6 Sudoeste 0 -- -- 85
2019-11-17 05:00:00 3.3 0 Calma 3 Norte 0 -- -- 84
2019-11-17 04:00:00 3.7 0 Calma 3 Sudoeste 0 -- -- 82
2019-11-17 03:00:00 4.6 0 Calma 11 Sudoeste 0 -- -- 75
2019-11-17 02:00:00 5.3 7 Oeste 18 Sudoeste 0 -- -- 73
2019-11-17 01:00:00 5.1 0 Calma 6 Sudoeste 0 -- -- 70
2019-11-17 00:00:00 5.8 0 Calma 3 Norte 0 -- -- 67
2019-11-16 23:00:00 6 0 Calma 8 Sudoeste 0 -- -- 66
2019-11-16 22:00:00 6.6 4 Sudoeste 16 Sudoeste 0 -- -- 63
2019-11-16 21:00:00 7.6 8 Oeste 16 Sudoeste 0 -- -- 59
2019-11-16 20:00:00 7.6 2 Noroeste 9 Oeste 0 -- -- 59
2019-11-16 19:00:00 7.9 2 Sudoeste 9 Oeste 0 -- -- 57
2019-11-16 18:00:00 9.1 3 Oeste 19 Oeste 0 -- -- 52
2019-11-16 17:00:00 11.4 5 Noroeste 18 Oeste 0 -- -- 46
2019-11-16 16:00:00 11.7 6 Noroeste 20 Oeste 0 -- -- 45
2019-11-16 15:00:00 12.6 4 Oeste 14 Oeste 0 -- -- 45
2019-11-16 14:00:00 11.7 5 Oeste 15 Sudoeste 0 -- -- 48
2019-11-16 13:00:00 9.3 4 Noroeste 10 Noroeste 0 -- -- 58
2019-11-16 12:00:00 8.4 5 Sur 11 Sur 0 -- -- 68
2019-11-16 11:00:00 6 5 Sur 10 Sur 0 -- -- 75
2019-11-16 10:00:00 3.7 0 Calma 4 Oeste 0 -- -- 83
2019-11-16 09:00:00 1.2 0 Calma 4 Norte 0 -- -- 89
2019-11-16 08:00:00 1.2 2 Norte 4 Noroeste 0 -- -- 87
2019-11-16 07:00:00 1.5 0 Calma 6 Norte 0 -- -- 86
2019-11-16 06:00:00 1.3 0 Calma 5 Norte 0 -- -- 86
2019-11-16 05:00:00 1.8 0 Calma 5 Norte 0 -- -- 84
2019-11-16 04:00:00 2.3 0 Calma 6 Norte 0 -- -- 81
2019-11-16 03:00:00 2.8 3 Norte 7 Norte 0 -- -- 79
2019-11-16 02:00:00 3.6 0 Calma 10 Oeste 0 -- -- 76
2019-11-16 01:00:00 4.2 2 Noroeste 6 Oeste 0 -- -- 73
2019-11-16 00:00:00 4.4 0 Calma 5 Oeste 0 -- -- 71
2019-11-15 23:00:00 5.3 0 Calma 8 Oeste 0 -- -- 66
2019-11-15 22:00:00 5.9 0 Calma 6 Oeste 0 -- -- 64
2019-11-15 21:00:00 6.7 0 Calma 11 Noroeste 0 -- -- 61
2019-11-15 20:00:00 7.2 3 Noroeste 10 Norte 0 -- -- 61
2019-11-15 19:00:00 7.4 0 Calma 15 Oeste 0 -- -- 63
2019-11-15 18:00:00 8.4 5 Oeste 22 Oeste 0 -- -- 57
2019-11-15 17:00:00 9.7 7 Oeste 20 Oeste 0 -- -- 54
2019-11-15 16:00:00 11.5 8 Oeste 21 Oeste 0 -- -- 49
2019-11-15 15:00:00 10.5 6 Oeste 17 Noroeste 0 -- -- 52
2019-11-15 14:00:00 10.6 4 Oeste 19 Oeste 0 -- -- 54
2019-11-15 13:00:00 8.9 6 Oeste 19 Oeste 0 -- -- 60
2019-11-15 12:00:00 6.7 6 Oeste 16 Noroeste 0 -- -- 68
2019-11-15 11:00:00 5.9 4 Noroeste 17 Noroeste 0 -- -- 73
2019-11-15 10:00:00 4.7 5 Noroeste 26 Oeste 0 -- -- 78
2019-11-15 09:00:00 3.8 7 Oeste 21 Noroeste 0 -- -- 83
2019-11-15 08:00:00 3.5 6 Noroeste 22 Oeste 0 -- -- 86
2019-11-15 07:00:00 3.7 5 Noroeste 24 Noroeste 0 -- -- 86
2019-11-15 06:00:00 3.6 6 Noroeste 25 Oeste 0 -- -- 89
2019-11-15 05:00:00 3.9 5 Oeste 14 Noroeste 0 -- -- 88
2019-11-15 04:00:00 4.4 2 Nordeste 23 Oeste 0 -- -- 84
2019-11-15 03:00:00 5.3 7 Oeste 33 Noroeste 0 -- -- 80
2019-11-15 02:00:00 5.9 11 Noroeste 40 Oeste 0 -- -- 79
2019-11-15 01:00:00 6.6 19 Noroeste 34 Noroeste 0 -- -- 78
2019-11-15 00:00:00 7.3 12 Oeste 45 Noroeste 0 -- -- 76
2019-11-14 23:00:00 7.9 14 Oeste 42 Oeste 0 -- -- 76
2019-11-14 22:00:00 8.1 17 Oeste 41 Oeste 0 -- -- 73
2019-11-14 21:00:00 8.4 19 Oeste 40 Noroeste 0 -- -- 74
2019-11-14 20:00:00 8.9 18 Oeste 39 Oeste 0 -- -- 67
2019-11-14 19:00:00 8.9 23 Oeste 47 Oeste 0 -- -- 69
2019-11-14 18:00:00 9.1 13 Oeste 37 Noroeste 0 -- -- 65
2019-11-14 17:00:00 9.8 17 Oeste 43 Noroeste 0 -- -- 60
2019-11-14 16:00:00 9.9 15 Oeste 48 Noroeste 0 -- -- 64
2019-11-14 15:00:00 9.3 22 Oeste 46 Oeste 0 -- -- 71
2019-11-14 14:00:00 9 9 Oeste 36 Oeste 0.4 -- -- 86
2019-11-14 13:00:00 8.2 15 Noroeste 35 Oeste 0 -- -- 88
2019-11-14 12:00:00 7.2 10 Noroeste 41 Oeste 1.4 -- -- 94
2019-11-14 11:00:00 8.7 18 Oeste 51 Oeste 0.4 -- -- 92
2019-11-14 10:00:00 8.9 22 Oeste 47 Sudoeste 0.8 -- -- 92
2019-11-14 09:00:00 9 20 Oeste 49 Oeste 0.8 -- -- 93
2019-11-14 08:00:00 9.5 8 Sudoeste 39 Oeste 0 -- -- 85
2019-11-14 07:00:00 9.7 21 Oeste 36 Oeste 0 -- -- 80
2019-11-14 06:00:00 9.5 17 Oeste 34 Oeste 0 -- -- 84
2019-11-14 05:00:00 8.7 12 Sudoeste 24 Sudoeste 0 -- -- 83
2019-11-14 04:00:00 8.6 13 Oeste 24 Oeste 0 -- -- 82
2019-11-14 03:00:00 9 9 Oeste 35 Oeste 0 -- -- 82
2019-11-14 02:00:00 9.6 18 Oeste 33 Oeste 0 -- -- 84
2019-11-14 01:00:00 10.6 6 Oeste 22 Oeste 0 -- -- 84
2019-11-14 00:00:00 11.5 8 Oeste 18 Oeste 0 -- -- 81
2019-11-13 23:00:00 11.9 4 Oeste 25 Oeste 0 -- -- 80
2019-11-13 22:00:00 13.4 11 Oeste 26 Oeste 0 -- -- 76
2019-11-13 21:00:00 14 12 Oeste 28 Oeste 0 -- -- 75
2019-11-13 20:00:00 14.5 9 Oeste 27 Oeste 0 -- -- 70
2019-11-13 19:00:00 15.6 14 Oeste 30 Oeste 0 -- -- 68
2019-11-13 18:00:00 16.3 12 Oeste 24 Oeste 0 -- -- 64
2019-11-13 17:00:00 18.1 12 Oeste 27 Oeste 0 -- -- 57
2019-11-13 16:00:00 18.3 12 Noroeste 28 Noroeste 0 -- -- 55
2019-11-13 15:00:00 18.1 7 Oeste 26 Oeste 0 -- -- 59
2019-11-13 14:00:00 16.7 10 Oeste 26 Oeste 0 -- -- 68
2019-11-13 13:00:00 15.2 6 Noroeste 31 Noroeste 0 -- -- 78
2019-11-13 12:00:00 14.5 14 Noroeste 35 Oeste 0 -- -- 80
2019-11-13 11:00:00 13.5 18 Oeste 41 Noroeste 0 -- -- 87
2019-11-13 10:00:00 12.8 19 Noroeste 41 Oeste 0 -- -- 93
2019-11-13 09:00:00 12.6 18 Oeste 39 Oeste 0.2 -- -- 93
2019-11-13 08:00:00 12.3 17 Oeste 37 Oeste 0 -- -- 93
2019-11-13 07:00:00 11.5 17 Oeste 38 Oeste 0.6 -- -- 96
2019-11-13 06:00:00 11.1 17 Oeste 41 Oeste 0.6 -- -- 96
2019-11-13 05:00:00 11.7 23 Oeste 54 Oeste 0 -- -- 89
2019-11-13 04:00:00 12.2 23 Oeste 49 Oeste 0 -- -- 82
2019-11-13 03:00:00 11.8 19 Oeste 35 Oeste 0 -- -- 84
2019-11-13 02:00:00 11.9 12 Oeste 30 Oeste 0 -- -- 85
2019-11-13 01:00:00 11.7 10 Oeste 23 Oeste 0 -- -- 82
2019-11-13 00:00:00 11.7 11 Oeste 31 Oeste 0 -- -- 81
2019-11-12 23:00:00 11.6 14 Oeste 29 Sudoeste 0 -- -- 76
2019-11-12 22:00:00 11.9 8 Oeste 23 Oeste 0 -- -- 67
2019-11-12 21:00:00 12.1 3 Oeste 27 Oeste 0 -- -- 62
2019-11-12 20:00:00 11.9 4 Oeste 14 Oeste 0 -- -- 57
2019-11-12 19:00:00 11.6 0 Calma 5 Noroeste 0 -- -- 55
2019-11-12 18:00:00 12.4 0 Calma 12 Oeste 0 -- -- 54
2019-11-12 17:00:00 14.1 3 Noroeste 18 Norte 0 -- -- 51
2019-11-12 16:00:00 14.3 4 Noroeste 21 Oeste 0 -- -- 56
2019-11-12 15:00:00 14.2 7 Oeste 18 Oeste 0 -- -- 57
2019-11-12 14:00:00 14 5 Oeste 15 Oeste 0 -- -- 59
2019-11-12 13:00:00 11.3 2 Noroeste 9 Norte 0 -- -- 71
2019-11-12 12:00:00 10 2 Sudoeste 10 Oeste 0 -- -- 83
2019-11-12 11:00:00 9.4 2 Norte 9 Sudoeste 0 -- -- 84
2019-11-12 10:00:00 8.6 0 Calma 4 Norte 0 -- -- 95
2019-11-12 09:00:00 7.8 0 Calma 3 Nordeste 0 -- -- 98
2019-11-12 08:00:00 7.5 0 Calma 4 Norte 0 -- -- 97
2019-11-12 07:00:00 7.8 3 Nordeste 6 Este 0 -- -- 97
2019-11-12 06:00:00 7.9 4 Nordeste 10 Nordeste 0 -- -- 98
2019-11-12 05:00:00 8.3 2 Este 11 Nordeste 0 -- -- 98
2019-11-12 04:00:00 8.7 3 Nordeste 6 Nordeste 0 -- -- 98
2019-11-12 03:00:00 9.2 0 Calma 9 Nordeste 0 -- -- 98
2019-11-12 02:00:00 9.5 3 Nordeste 6 Nordeste 0 -- -- 97
2019-11-12 01:00:00 10.1 3 Nordeste 8 Nordeste 0 -- -- 97
2019-11-12 00:00:00 10.4 0 Calma 5 Este 0 -- -- 97
2019-11-11 23:00:00 10.5 3 Nordeste 6 Este 0 -- -- 97
2019-11-11 22:00:00 10.4 0 Calma 4 Nordeste 0 -- -- 98
2019-11-11 21:00:00 10.2 0 Calma 4 Este 0 -- -- 98
2019-11-11 20:00:00 10 0 Calma 5 Este 0 -- -- 97
2019-11-11 19:00:00 10.3 2 Este 4 Sudeste 0 -- -- 96
2019-11-11 18:00:00 11 0 Calma 5 Oeste 0 -- -- 95
2019-11-11 17:00:00 10.9 2 Noroeste 7 Noroeste 0 -- -- 96
2019-11-11 16:00:00 11 0 Calma 5 Norte 0 -- -- 92
2019-11-11 15:00:00 10.9 0 Calma 14 Sudoeste 0 -- -- 89
2019-11-11 14:00:00 10.4 3 Oeste 10 Oeste 0 -- -- 90
2019-11-11 13:00:00 10.2 4 Oeste 13 Oeste 0 -- -- 88
2019-11-11 12:00:00 10 4 Oeste 15 Oeste 0 -- -- 88
2019-11-11 11:00:00 9.4 3 Oeste 13 Oeste 0 -- -- 87
2019-11-11 10:00:00 8.8 3 Oeste 12 Sudoeste 0 -- -- 91
2019-11-11 09:00:00 8.3 4 Oeste 9 Noroeste 0 -- -- 94
2019-11-11 08:00:00 8.2 0 Calma 8 Noroeste 0 -- -- 94
2019-11-11 07:00:00 8.2 0 Calma 9 Oeste 0 -- -- 93
2019-11-11 06:00:00 8.2 3 Noroeste 9 Noroeste 0 -- -- 92
2019-11-11 05:00:00 8.2 2 Noroeste 10 Oeste 0 -- -- 90
2019-11-11 04:00:00 8.4 0 Calma 13 Oeste 0 -- -- 83
2019-11-11 03:00:00 8.4 3 Oeste 10 Oeste 0 -- -- 82
2019-11-11 02:00:00 8.5 0 Calma 9 Norte 0 -- -- 82
2019-11-11 01:00:00 8.6 0 Calma 16 Norte 0 -- -- 80
2019-11-11 00:00:00 8.7 5 Noroeste 18 Noroeste 0 -- -- 79
2019-11-10 23:00:00 8.8 5 Noroeste 16 Norte 0 -- -- 79
2019-11-10 22:00:00 8.9 4 Noroeste 18 Sudoeste 0 -- -- 77
2019-11-10 21:00:00 9.1 4 Noroeste 21 Noroeste 0 -- -- 77
2019-11-10 20:00:00 9.1 4 Noroeste 27 Oeste 0 -- -- 74
2019-11-10 19:00:00 9.1 4 Noroeste 28 Oeste 0 -- -- 71
2019-11-10 18:00:00 9.5 8 Noroeste 35 Oeste 0 -- -- 68
2019-11-10 17:00:00 10.3 9 Noroeste 24 Noroeste 0 -- -- 61
2019-11-10 16:00:00 10.7 8 Noroeste 22 Norte 0 -- -- 55
2019-11-10 15:00:00 10.7 5 Noroeste 23 Oeste 0 -- -- 60
2019-11-10 14:00:00 10.3 5 Noroeste 26 Noroeste 0 -- -- 62
2019-11-10 13:00:00 10.3 7 Noroeste 23 Oeste 0 -- -- 63
2019-11-10 12:00:00 9.7 8 Noroeste 24 Oeste 0 -- -- 65
2019-11-10 11:00:00 9.1 6 Noroeste 21 Oeste 0 -- -- 69
2019-11-10 10:00:00 8.6 5 Noroeste 21 Oeste 0 -- -- 74
2019-11-10 09:00:00 7.9 3 Noroeste 17 Noroeste 0 -- -- 78
2019-11-10 08:00:00 7.8 3 Noroeste 14 Noroeste 0 -- -- 78
2019-11-10 07:00:00 8.2 4 Noroeste 18 Noroeste 0 -- -- 77
2019-11-10 06:00:00 8.5 7 Noroeste 23 Noroeste 0 -- -- 79
2019-11-10 05:00:00 8.8 5 Noroeste 15 Oeste 0 -- -- 80
2019-11-10 04:00:00 9.1 4 Oeste 28 Noroeste 0 -- -- 90
2019-11-10 03:00:00 9.9 14 Oeste 30 Oeste 0 -- -- 92
2019-11-10 02:00:00 10.6 4 Oeste 33 Oeste 0 -- -- 93
2019-11-10 01:00:00 11 15 Noroeste 37 Noroeste 0 -- -- 92
2019-11-10 00:00:00 11.1 12 Oeste 28 Oeste 0 -- -- 95
2019-11-09 23:00:00 10.8 10 Oeste 21 Sudoeste 0 -- -- 97
2019-11-09 22:00:00 10.4 9 Oeste 26 Oeste 0.4 -- -- 97
2019-11-09 21:00:00 10.3 5 Sudoeste 24 Sudoeste 0.4 -- -- 96
2019-11-09 20:00:00 10.4 9 Oeste 19 Oeste 0.4 -- -- 93
2019-11-09 19:00:00 11.3 4 Oeste 18 Norte 0 -- -- 81
2019-11-09 18:00:00 12.4 8 Oeste 20 Oeste 0 -- -- 62
2019-11-09 17:00:00 12.7 8 Oeste 23 Oeste 0 -- -- 54
2019-11-09 16:00:00 12.9 7 Oeste 19 Oeste 0 -- -- 52
2019-11-09 15:00:00 13.2 8 Oeste 19 Oeste 0 -- -- 50
2019-11-09 14:00:00 13.3 10 Oeste 26 Oeste 0 -- -- 50
2019-11-09 13:00:00 10.8 9 Oeste 24 Oeste 0 -- -- 58
2019-11-09 12:00:00 11.4 8 Oeste 22 Oeste 0 -- -- 58
2019-11-09 11:00:00 9.2 7 Oeste 17 Sudoeste 0 -- -- 67
2019-11-09 10:00:00 5.8 4 Sur 10 Sur 0 -- -- 83
2019-11-09 09:00:00 4.2 2 Sudeste 7 Oeste 0 -- -- 86
2019-11-09 08:00:00 4.1 0 Calma 8 Oeste 0 -- -- 85
2019-11-09 07:00:00 4.2 0 Calma 5 Norte 0 -- -- 83
2019-11-09 06:00:00 4.8 2 Noroeste 8 Oeste 0 -- -- 80
2019-11-09 05:00:00 5.6 2 Noroeste 8 Oeste 0 -- -- 75
2019-11-09 04:00:00 5.6 2 Oeste 8 Oeste 0 -- -- 76
2019-11-09 03:00:00 5.5 3 Sur 5 Sur 0 -- -- 76
2019-11-09 02:00:00 6.8 0 Calma 8 Oeste 0 -- -- 72
2019-11-09 01:00:00 7.3 0 Calma 13 Noroeste 0 -- -- 70
2019-11-09 00:00:00 8 0 Calma 8 Noroeste 0 -- -- 66
2019-11-08 23:00:00 9.1 3 Noroeste 14 Noroeste 0 -- -- 61
2019-11-08 22:00:00 9.2 3 Noroeste 12 Oeste 0 -- -- 61
2019-11-08 21:00:00 9.7 2 Noroeste 10 Noroeste 0 -- -- 58
2019-11-08 20:00:00 10 2 Noroeste 13 Oeste 0 -- -- 57
2019-11-08 19:00:00 10.4 4 Noroeste 15 Noroeste 0 -- -- 53
2019-11-08 18:00:00 11.4 5 Noroeste 21 Oeste 0 -- -- 49
2019-11-08 17:00:00 12.9 6 Oeste 27 Noroeste 0 -- -- 47
2019-11-08 16:00:00 13.2 5 Oeste 26 Noroeste 0 -- -- 47
2019-11-08 15:00:00 12.9 9 Oeste 25 Oeste 0 -- -- 47
2019-11-08 14:00:00 13 11 Oeste 26 Norte 0 -- -- 50
2019-11-08 13:00:00 10.8 10 Oeste 21 Oeste 0 -- -- 59
2019-11-08 12:00:00 8.8 4 Noroeste 28 Noroeste 0 -- -- 68
2019-11-08 11:00:00 8.3 6 Noroeste 21 Oeste 0 -- -- 70
2019-11-08 10:00:00 6.7 5 Noroeste 22 Oeste 0 -- -- 86
2019-11-08 09:00:00 6.3 4 Oeste 20 Oeste 0 -- -- 91
2019-11-08 08:00:00 5.9 3 Noroeste 25 Oeste 0 -- -- 92
2019-11-08 07:00:00 6.2 13 Noroeste 34 Noroeste 0 -- -- 92
2019-11-08 06:00:00 6.6 13 Noroeste 40 Oeste 0 -- -- 91
2019-11-08 05:00:00 7.2 8 Noroeste 27 Oeste 0 -- -- 89
2019-11-08 04:00:00 7.3 12 Oeste 33 Oeste 0 -- -- 88
2019-11-08 03:00:00 7.7 10 Oeste 27 Oeste 0 -- -- 85
2019-11-08 02:00:00 7.7 8 Oeste 29 Oeste 0 -- -- 78
2019-11-08 01:00:00 8.2 13 Oeste 30 Noroeste 0 -- -- 72
2019-11-08 00:00:00 8.4 13 Oeste 29 Oeste 0 -- -- 71